Aviation

Port-au-Prince

FTHA31 MTPP 211200
TAF AMD MTPP 211327Z 2113/2212 11013KT 9000 SCT012 BKN040 FM211800 28012KT 8000 SCT024TCU PROB40 TEMPO 2200/2205 4500 TSRA SCT026CB OVC040 BECMG 2206/2210 VRB02KT 9000 NSW SCT018 =


Cap-Haïtien

FTHA31 MTCH 201800
TAF MTCH 201843Z 2018/2118 03007KT 9999 SCT030CB BKN060
PROB40 TEMPO 2100/2105 4500 TSRA SCT026CB OVC040
BECMG 2106/2110 VRB02KT 9000 NSW SCT018
FM1100 06008KT 9999 SCT020
=